Time;durP1;ratioP1;P1;durP2;ratioP2;P2;SDS_P1;SDS_P2;PMS_P1;PMS_P2;Temp;Humidity;BMP_temperature;BMP_pressure;BME280_temperature;BME280_humidity;BME280_pressure;Samples;Min_cycle;Max_cycle;Signal;HPM_P1;HPM_P2
2023/02/14 00:00:33;;;;;;;58.13;39.60;;;;;;;-0.91;90.27;97488.25;5039484;28;20063;-63
2023/02/14 00:02:59;;;;;;;51.92;40.08;;;;;;;-0.93;90.06;97492.59;5039936;28;20030;-63
2023/02/14 00:05:24;;;;;;;55.97;40.45;;;;;;;-0.94;90.40;97485.72;5039386;28;20044;-63
2023/02/14 00:07:51;;;;;;;52.75;37.60;;;;;;;-0.97;90.92;97490.97;5074782;28;20040;-64
2023/02/14 00:10:16;;;;;;;49.83;35.60;;;;;;;-1.01;90.57;97481.53;5074666;28;20409;-64
2023/02/14 00:12:42;;;;;;;50.10;37.35;;;;;;;-1.00;91.18;97483.22;5074798;28;20078;-68
2023/02/14 00:15:21;;;;;;;51.22;36.42;;;;;;;-0.99;90.21;97476.34;5075617;28;20020;-69
2023/02/14 00:17:51;;;;;;;44.03;33.70;;;;;;;-0.99;90.96;97477.22;5075708;28;20043;-69
2023/02/14 00:20:16;;;;;;;42.17;32.17;;;;;;;-1.00;90.34;97480.66;5074396;28;20412;-68
2023/02/14 00:22:42;;;;;;;41.97;30.25;;;;;;;-1.04;90.98;97484.16;5076721;28;20038;-68
2023/02/14 00:25:08;;;;;;;43.53;31.35;;;;;;;-1.05;91.14;97477.28;5075511;28;20055;-68
2023/02/14 00:27:33;;;;;;;42.95;30.40;;;;;;;-1.04;91.33;97481.59;5078248;28;20794;-76
2023/02/14 00:30:01;;;;;;;34.72;27.13;;;;;;;-1.05;90.79;97477.28;5074980;28;20028;-63
2023/02/14 00:32:27;;;;;;;39.15;27.35;;;;;;;-1.05;90.05;97465.22;5077167;28;20636;-69
2023/02/14 00:34:53;;;;;;;32.33;24.88;;;;;;;-1.07;90.55;97471.31;5061152;28;20080;-69
2023/02/14 00:37:18;;;;;;;29.10;22.25;;;;;;;-1.12;91.43;97467.94;5054114;28;20518;-69
2023/02/14 00:39:43;;;;;;;32.60;25.67;;;;;;;-1.13;90.65;97472.25;5057655;28;20070;-69
2023/02/14 00:42:09;;;;;;;32.15;23.10;;;;;;;-1.13;90.69;97471.41;5055616;28;20025;-69
2023/02/14 00:44:34;;;;;;;37.00;26.27;;;;;;;-1.14;90.97;97464.53;5056520;28;20033;-70
2023/02/14 00:47:00;;;;;;;33.58;25.98;;;;;;;-1.18;91.26;97466.31;5056284;28;20103;-64
2023/02/14 00:49:26;;;;;;;31.95;25.35;;;;;;;-1.22;91.67;97469.84;5058078;28;20094;-64
2023/02/14 00:51:52;;;;;;;30.90;22.42;;;;;;;-1.23;90.95;97465.53;5053760;28;20044;-68
2023/02/14 00:54:17;;;;;;;31.35;23.83;;;;;;;-1.25;91.92;97460.38;5057445;28;20098;-69
2023/02/14 00:56:42;;;;;;;29.63;21.40;;;;;;;-1.23;91.80;97462.97;5051814;28;20361;-68
2023/02/14 00:59:08;;;;;;;35.08;22.27;;;;;;;-1.24;91.40;97462.09;5056281;28;20419;-68
2023/02/14 01:01:33;;;;;;;36.53;26.45;;;;;;;-1.25;90.84;97462.13;5048839;28;20044;-68
2023/02/14 01:03:59;;;;;;;35.15;26.70;;;;;;;-1.23;91.31;97461.22;5056688;28;20053;-68
2023/02/14 01:06:24;;;;;;;33.65;24.48;;;;;;;-1.22;91.21;97457.75;5055621;28;20075;-64
2023/02/14 01:08:49;;;;;;;32.05;24.70;;;;;;;-1.25;91.35;97455.22;5051667;28;20033;-76
2023/02/14 01:11:20;;;;;;;33.63;26.70;;;;;;;-1.27;92.56;97466.47;5052443;28;20112;-67
2023/02/14 01:13:47;;;;;;;31.85;25.80;;;;;;;-1.31;92.62;97461.38;5063362;28;20028;-67
2023/02/14 01:16:15;;;;;;;29.67;23.35;;;;;;;-1.29;92.47;97466.50;5057901;28;20037;-67
2023/02/14 01:18:41;;;;;;;27.20;21.77;;;;;;;-1.29;92.93;97461.31;5057996;28;20052;-67
2023/02/14 01:21:19;;;;;;;28.73;21.73;;;;;;;-1.30;92.47;97463.06;5058513;28;20498;-67
2023/02/14 01:23:46;;;;;;;29.58;21.17;;;;;;;-1.35;93.07;97466.59;5054348;28;20036;-67
2023/02/14 01:26:12;;;;;;;31.33;22.73;;;;;;;-1.36;91.77;97455.41;5058906;28;20108;-65
2023/02/14 01:28:37;;;;;;;29.75;23.25;;;;;;;-1.32;91.24;97457.06;5059406;28;20486;-63
2023/02/14 01:31:19;;;;;;;25.83;21.65;;;;;;;-1.34;91.79;97455.38;5060929;28;20028;-63
2023/02/14 01:33:45;;;;;;;27.25;22.15;;;;;;;-1.35;91.62;97461.44;5041710;28;20087;-64
2023/02/14 01:36:17;;;;;;;24.90;19.13;;;;;;;-1.36;92.35;97457.16;5078007;28;20050;-63
2023/02/14 01:38:43;;;;;;;24.30;19.00;;;;;;;-1.38;92.36;97451.16;5077321;28;20054;-63
2023/02/14 01:41:08;;;;;;;25.13;20.13;;;;;;;-1.41;92.55;97452.03;5061076;28;20506;-63
2023/02/14 01:43:48;;;;;;;23.00;19.08;;;;;;;-1.45;93.15;97450.38;5079981;28;20104;-63
2023/02/14 01:46:14;;;;;;;22.23;17.92;;;;;;;-1.46;92.96;97452.09;5075869;28;20035;-64
2023/02/14 01:48:40;;;;;;;20.30;18.02;;;;;;;-1.46;93.24;97441.78;5079428;28;20032;-63
2023/02/14 01:51:05;;;;;;;20.60;16.15;;;;;;;-1.46;93.20;97444.34;5079263;28;20040;-63
2023/02/14 01:53:31;;;;;;;17.27;14.73;;;;;;;-1.45;93.62;97440.91;5077148;28;20028;-63
2023/02/14 01:56:05;;;;;;;21.48;17.95;;;;;;;-1.45;92.80;97434.88;5077206;28;20129;-63
2023/02/14 01:58:34;;;;;;;17.90;15.97;;;;;;;-1.42;92.01;97434.00;5078392;28;20446;-63
2023/02/14 02:01:01;;;;;;;23.00;16.90;;;;;;;-1.33;92.56;97433.81;5079088;28;20417;-63
2023/02/14 02:03:31;;;;;;;18.40;16.40;;;;;;;-1.35;92.88;97439.00;5078518;28;20043;-65
2023/02/14 02:06:10;;;;;;;18.55;15.90;;;;;;;-1.41;93.28;97436.53;5076716;28;20520;-67
2023/02/14 02:08:40;;;;;;;20.15;15.85;;;;;;;-1.47;92.40;97445.22;5058649;28;20033;-70
2023/02/14 02:11:05;;;;;;;18.27;15.70;;;;;;;-1.51;92.80;97441.00;5080022;28;20032;-70
2023/02/14 02:13:32;;;;;;;18.42;14.85;;;;;;;-1.51;92.70;97438.41;5077927;28;20034;-69
2023/02/14 02:16:04;;;;;;;18.15;15.52;;;;;;;-1.45;92.53;97433.13;5078564;28;20041;-70
2023/02/14 02:18:42;;;;;;;24.35;16.83;;;;;;;-1.49;92.96;97434.06;5075069;28;20040;-69
2023/02/14 02:21:29;;;;;;;21.45;14.95;;;;;;;-1.46;93.52;97439.19;5079753;28;20521;-71
2023/02/14 02:24:13;;;;;;;19.55;13.45;;;;;;;-1.42;92.90;97437.41;5072978;28;20042;-69
2023/02/14 02:26:56;;;;;;;19.17;14.18;;;;;;;-1.42;93.03;97442.59;5076792;28;20040;-68
2023/02/14 02:30:06;;;;;;;18.38;14.15;;;;;;;-1.48;93.19;97430.63;5076826;28;20040;-68
2023/02/14 02:32:57;;;;;;;15.73;13.90;;;;;;;-1.53;92.85;97429.00;5073782;28;20037;-68
2023/02/14 02:35:36;;;;;;;17.00;14.05;;;;;;;-1.60;93.63;97433.41;5076473;28;20161;-67
2023/02/14 02:38:20;;;;;;;15.43;13.38;;;;;;;-1.64;92.64;97431.75;5078945;28;20067;-67
2023/02/14 02:41:00;;;;;;;15.60;13.38;;;;;;;-1.67;93.62;97430.06;5078199;28;20024;-68
2023/02/14 02:43:50;;;;;;;18.10;14.20;;;;;;;-1.68;92.93;97422.31;5076268;28;20032;-67
2023/02/14 02:58:43;;;;;;;12.68;11.20;;;;;;;-1.67;93.82;97430.06;5078682;28;20118;-70
2023/02/14 03:01:13;;;;;;;12.45;10.73;;;;;;;-1.71;93.33;97422.38;5074173;28;20046;-63
2023/02/14 03:06:29;;;;;;;12.75;11.30;;;;;;;-1.76;93.41;97431.06;5076636;28;21577;-64
2023/02/14 03:08:54;;;;;;;13.00;10.98;;;;;;;-1.77;92.87;97426.75;5075747;28;20032;-63
2023/02/14 03:11:20;;;;;;;12.25;10.65;;;;;;;-1.78;94.49;97424.19;5076901;28;20028;-64
2023/02/14 03:14:06;;;;;;;12.07;10.77;;;;;;;-1.82;94.54;97430.28;5079358;28;20028;-63
2023/02/14 03:16:37;;;;;;;10.88;9.68;;;;;;;-1.88;94.90;97426.94;5079397;28;20058;-63
2023/02/14 03:22:26;;;;;;;11.40;9.82;;;;;;;-1.87;94.85;97427.78;5077965;28;20676;-67
2023/02/14 03:25:02;;;;;;;10.98;9.85;;;;;;;-1.91;94.77;97423.53;5059206;28;20040;-63
2023/02/14 03:27:37;;;;;;;12.73;10.40;;;;;;;-1.94;94.91;97427.03;5078205;28;20032;-64
2023/02/14 03:30:16;;;;;;;11.23;9.57;;;;;;;-1.93;94.91;97423.56;5077233;28;20036;-64
2023/02/14 03:33:32;;;;;;;15.07;10.90;;;;;;;-1.92;95.08;97420.09;5068714;28;20830;-64
2023/02/14 03:36:07;;;;;;;12.48;11.18;;;;;;;-1.91;95.52;97423.53;5052155;28;20048;-64
2023/02/14 03:38:35;;;;;;;;;;;;;;;-1.92;96.18;97416.66;5055982;28;20041;-64
2023/02/14 03:41:04;;;;;;;17.40;12.27;;;;;;;-1.96;95.98;97418.44;5054423;28;19915;-68
2023/02/14 03:43:36;;;;;;;17.02;12.38;;;;;;;-1.99;95.67;97418.50;5054306;28;20417;-70
2023/02/14 03:46:21;;;;;;;15.18;11.20;;;;;;;-1.95;95.06;97414.13;5053559;28;20035;-68
2023/02/14 03:48:49;;;;;;;12.27;10.70;;;;;;;-1.97;95.12;97418.47;5055018;28;20072;-68
2023/02/14 03:51:17;;;;;;;15.40;11.77;;;;;;;-1.95;95.44;97412.41;5056878;28;20028;-68
2023/02/14 03:53:46;;;;;;;13.38;11.50;;;;;;;-1.96;95.02;97422.75;5059142;28;20032;-68
2023/02/14 03:56:30;;;;;;;13.23;10.75;;;;;;;-1.96;95.54;97415.00;5054978;28;20511;-68
2023/02/14 03:58:59;;;;;;;15.15;11.00;;;;;;;-1.98;96.47;97414.19;5050531;28;20032;-63
2023/02/14 04:01:34;;;;;;;15.77;11.35;;;;;;;-2.02;95.90;97416.81;5054476;28;20027;-76
2023/02/14 04:04:01;;;;;;;14.48;12.20;;;;;;;-2.07;96.14;97415.16;5055497;28;20025;-63
2023/02/14 04:06:27;;;;;;;13.98;10.80;;;;;;;-2.10;95.26;97418.66;5053201;28;20046;-63
2023/02/14 04:08:52;;;;;;;15.20;11.20;;;;;;;-2.11;95.61;97419.50;5038132;28;20044;-63
2023/02/14 04:11:18;;;;;;;16.27;12.02;;;;;;;-2.12;95.09;97420.38;5038775;28;20226;-63
2023/02/14 04:13:43;;;;;;;19.98;12.27;;;;;;;-2.11;96.15;97423.81;5055532;28;20083;-63
2023/02/14 04:16:08;;;;;;;14.15;11.65;;;;;;;-2.11;95.93;97424.66;5053352;28;20040;-63
2023/02/14 04:21:25;;;;;;;16.40;12.00;;;;;;;-2.17;95.85;97419.59;5035711;28;20037;-65
2023/02/14 04:23:50;;;;;;;15.95;12.13;;;;;;;-2.16;96.36;97424.75;5054743;28;20548;-67
2023/02/14 04:26:16;;;;;;;17.10;12.98;;;;;;;-2.19;96.29;97423.94;5055677;28;20435;-68
2023/02/14 04:28:41;;;;;;;16.85;12.23;;;;;;;-2.21;95.75;97417.94;5056867;28;20406;-68
2023/02/14 04:31:06;;;;;;;19.13;12.68;;;;;;;-2.22;96.85;97418.81;5056964;28;20064;-68
2023/02/14 04:33:32;;;;;;;15.07;11.35;;;;;;;-2.27;96.47;97424.03;5054959;28;20052;-68
2023/02/14 04:35:59;;;;;;;21.45;12.57;;;;;;;-2.27;95.62;97421.44;5078769;28;20036;-68
2023/02/14 04:38:24;;;;;;;17.40;12.90;;;;;;;-2.25;96.06;97429.19;5073750;28;20032;-66
2023/02/14 04:40:51;;;;;;;18.88;12.88;;;;;;;-2.29;96.17;97418.03;5075720;28;20564;-68
2023/02/14 04:43:17;;;;;;;17.17;13.10;;;;;;;-2.33;96.14;97417.22;5073755;28;20028;-63
2023/02/14 04:45:42;;;;;;;18.13;13.27;;;;;;;-2.34;96.25;97423.25;5055238;28;20039;-63
2023/02/14 04:48:07;;;;;;;18.80;13.35;;;;;;;-2.35;96.73;97425.88;5074983;28;20302;-63
2023/02/14 04:50:33;;;;;;;16.40;12.77;;;;;;;-2.33;96.65;97419.78;5076650;28;20387;-64
2023/02/14 04:52:58;;;;;;;16.73;12.88;;;;;;;-2.34;97.46;97422.41;5078329;28;20039;-63
2023/02/14 04:55:23;;;;;;;22.90;16.75;;;;;;;-2.34;97.27;97423.25;5073931;28;20043;-63
2023/02/14 04:57:49;;;;;;;24.13;16.50;;;;;;;-2.33;96.99;97427.53;5079090;28;20072;-69
2023/02/14 05:00:15;;;;;;;21.80;14.63;;;;;;;-2.34;97.75;97425.00;5074400;28;20553;-70
2023/02/14 05:02:40;;;;;;;17.25;13.88;;;;;;;-2.36;97.75;97419.00;5074321;28;20627;-63
2023/02/14 05:05:05;;;;;;;18.58;13.93;;;;;;;-2.37;98.02;97415.56;5070452;28;20079;-63
2023/02/14 05:07:31;;;;;;;16.13;13.45;;;;;;;-2.38;97.76;97418.16;5056406;28;20035;-63
2023/02/14 05:09:56;;;;;;;17.30;12.80;;;;;;;-2.42;97.76;97427.66;5076797;28;20040;-64
2023/02/14 05:12:22;;;;;;;15.20;12.27;;;;;;;-2.45;97.26;97420.81;5058231;28;20023;-63
2023/02/14 05:14:47;;;;;;;17.67;13.70;;;;;;;-2.42;97.35;97413.94;5075546;28;20143;-63
2023/02/14 05:17:12;;;;;;;18.55;14.20;;;;;;;-2.42;98.70;97411.34;5072725;28;20054;-68
2023/02/14 05:19:38;;;;;;;18.65;15.02;;;;;;;-2.43;98.24;97407.91;5071586;28;20418;-65
2023/02/14 05:22:03;;;;;;;16.00;13.02;;;;;;;-2.40;97.94;97415.59;5074870;28;20090;-65
2023/02/14 05:24:28;;;;;;;17.73;14.65;;;;;;;-2.38;98.10;97403.53;5074728;28;20048;-65
2023/02/14 05:26:54;;;;;;;45.13;27.02;;;;;;;-2.38;98.56;97394.94;5076572;28;20575;-66
2023/02/14 05:29:19;;;;;;;48.38;30.55;;;;;;;-2.41;98.10;97395.84;5076344;28;20123;-65
2023/02/14 05:31:44;;;;;;;55.35;33.30;;;;;;;-2.43;98.60;97407.03;5074583;28;20047;-65
2023/02/14 05:34:10;;;;;;;56.10;35.97;;;;;;;-2.46;98.31;97408.78;5075747;28;20119;-65
2023/02/14 05:36:35;;;;;;;52.58;31.20;;;;;;;-2.50;99.09;97408.88;5073589;28;20068;-70
2023/02/14 05:39:01;;;;;;;46.47;30.70;;;;;;;-2.53;99.12;97406.31;5070402;28;20553;-65
2023/02/14 05:41:26;;;;;;;37.33;27.45;;;;;;;-2.56;98.64;97398.59;5074038;28;20513;-65
2023/02/14 05:43:51;;;;;;;35.88;23.70;;;;;;;-2.55;98.86;97400.31;5073538;28;20425;-65
2023/02/14 05:46:17;;;;;;;40.15;26.13;;;;;;;-2.57;98.77;97399.47;5073824;28;20498;-65
2023/02/14 05:48:43;;;;;;;34.88;24.48;;;;;;;-2.62;99.09;97402.97;5072684;28;20086;-66
2023/02/14 05:51:09;;;;;;;38.25;25.42;;;;;;;-2.63;99.08;97401.25;5072910;28;20032;-65
2023/02/14 05:53:35;;;;;;;41.17;26.13;;;;;;;-2.65;98.70;97405.59;5076142;28;20134;-65
2023/02/14 05:56:01;;;;;;;30.75;23.90;;;;;;;-2.67;98.84;97403.88;5058458;28;20123;-77
2023/02/14 05:58:27;;;;;;;33.53;23.73;;;;;;;-2.70;98.88;97397.06;5072121;28;20033;-64
2023/02/14 06:00:52;;;;;;;29.85;22.33;;;;;;;-2.67;99.82;97404.75;5077527;28;20028;-64
2023/02/14 06:03:17;;;;;;;37.22;26.58;;;;;;;-2.69;99.27;97398.75;5077122;28;20497;-64
2023/02/14 06:05:43;;;;;;;32.55;25.20;;;;;;;-2.70;99.50;97398.78;5078071;28;20068;-64
2023/02/14 06:08:08;;;;;;;28.50;21.27;;;;;;;-2.70;100.00;97396.19;5078634;28;20039;-64
2023/02/14 06:10:33;;;;;;;29.58;21.80;;;;;;;-2.71;99.49;97397.06;5080300;28;20039;-64
2023/02/14 06:12:59;;;;;;;27.05;20.00;;;;;;;-2.74;99.67;97409.13;5077782;28;20033;-64
2023/02/14 06:15:25;;;;;;;26.52;19.25;;;;;;;-2.78;100.00;97402.31;5060939;28;20028;-69
2023/02/14 06:17:55;;;;;;;27.38;18.83;;;;;;;-2.80;99.16;97410.91;5077268;28;20028;-65
2023/02/14 06:20:22;;;;;;;24.23;18.60;;;;;;;-2.81;99.85;97415.22;5058262;28;20551;-65
2023/02/14 06:22:47;;;;;;;21.58;17.65;;;;;;;-2.81;99.04;97419.53;5079374;28;20035;-65
2023/02/14 06:25:13;;;;;;;21.45;17.63;;;;;;;-2.78;99.73;97417.78;5079974;28;20040;-65
2023/02/14 06:27:38;;;;;;;19.13;16.80;;;;;;;-2.77;98.95;97413.44;5079056;28;20093;-65
2023/02/14 06:30:05;;;;;;;22.88;18.50;;;;;;;-2.75;99.33;97416.91;5078908;28;20498;-65
2023/02/14 06:32:30;;;;;;;23.98;20.15;;;;;;;-2.75;100.00;97416.91;5073420;28;20057;-69
2023/02/14 06:34:55;;;;;;;21.40;18.92;;;;;;;-2.72;100.00;97422.00;5080249;28;20075;-63
2023/02/14 06:37:21;;;;;;;22.83;19.27;;;;;;;-2.73;99.94;97425.47;5078454;28;20028;-68
2023/02/14 06:39:46;;;;;;;20.08;16.92;;;;;;;-2.74;99.77;97416.84;5077685;28;20029;-67
2023/02/14 06:42:13;;;;;;;18.52;15.35;;;;;;;-2.68;100.00;97422.81;5068806;28;20060;-68
2023/02/14 06:44:38;;;;;;;17.65;15.75;;;;;;;-2.60;100.00;97421.84;5075497;28;20967;-68
2023/02/14 06:47:03;;;;;;;16.70;14.68;;;;;;;-2.62;100.00;97421.03;5073288;28;20032;-68
2023/02/14 06:49:29;;;;;;;21.75;16.67;;;;;;;-2.64;99.66;97424.50;5079132;28;20378;-68
2023/02/14 06:51:54;;;;;;;21.88;18.50;;;;;;;-2.63;99.05;97423.63;5077306;28;20537;-69
2023/02/14 06:54:20;;;;;;;23.55;18.20;;;;;;;-2.54;98.21;97426.09;5077802;28;20383;-70
2023/02/14 06:56:45;;;;;;;26.67;18.35;;;;;;;-2.57;98.94;97422.69;5070714;28;20486;-69
2023/02/14 06:59:10;;;;;;;23.42;18.25;;;;;;;-2.60;99.05;97423.59;5072468;28;20032;-70
2023/02/14 07:01:36;;;;;;;22.13;19.55;;;;;;;-2.62;99.36;97427.91;5065946;28;20152;-69
2023/02/14 07:04:01;;;;;;;25.30;18.15;;;;;;;-2.66;99.36;97424.50;5070393;28;20114;-69
2023/02/14 07:06:26;;;;;;;19.58;17.35;;;;;;;-2.63;98.43;97421.88;5065783;28;20563;-69
2023/02/14 07:08:52;;;;;;;23.90;18.50;;;;;;;-2.60;99.40;97426.16;5070498;28;20039;-69
2023/02/14 07:11:17;;;;;;;27.02;19.10;;;;;;;-2.56;99.65;97421.81;5069156;28;20036;-69
2023/02/14 07:13:43;;;;;;;27.80;19.83;;;;;;;-2.55;99.55;97424.38;5069647;28;20037;-70
2023/02/14 07:16:09;;;;;;;26.77;18.20;;;;;;;-2.53;99.07;97429.53;5056922;28;20490;-65
2023/02/14 07:18:34;;;;;;;21.63;18.50;;;;;;;-2.55;99.02;97423.50;5066648;28;20102;-66
2023/02/14 07:21:00;;;;;;;21.92;16.42;;;;;;;-2.51;98.55;97422.63;5068393;28;20028;-65
2023/02/14 07:23:25;;;;;;;19.42;16.52;;;;;;;-2.44;98.50;97411.34;5078762;28;20032;-66
2023/02/14 07:25:50;;;;;;;21.05;17.13;;;;;;;-2.42;98.55;97419.91;5072810;28;20036;-66
2023/02/14 07:28:16;;;;;;;21.33;16.52;;;;;;;-2.41;98.71;97418.22;5077917;28;20081;-67
2023/02/14 07:30:41;;;;;;;23.63;16.30;;;;;;;-2.41;98.34;97415.63;5077385;28;20028;-70
2023/02/14 07:33:06;;;;;;;27.42;19.67;;;;;;;-2.42;97.80;97412.19;5073891;28;20085;-72
2023/02/14 07:35:34;;;;;;;25.92;18.95;;;;;;;-2.38;98.02;97413.84;5070453;28;20091;-71
2023/02/14 07:37:59;;;;;;;26.25;18.58;;;;;;;-2.34;97.88;97409.50;5071247;28;20086;-71
2023/02/14 07:40:24;;;;;;;25.10;19.00;;;;;;;-2.33;97.17;97404.31;5070411;28;20037;-68
2023/02/14 07:42:54;;;;;;;29.88;21.48;;;;;;;-2.26;98.15;97404.25;5068268;28;20030;-69
2023/02/14 07:45:20;;;;;;;29.23;20.10;;;;;;;-2.21;97.71;97415.34;5056047;28;20569;-68
2023/02/14 07:47:50;;;;;;;27.27;20.20;;;;;;;-2.17;97.65;97417.00;5064743;28;20028;-68
2023/02/14 07:50:16;;;;;;;25.00;18.83;;;;;;;-2.19;98.58;97416.19;5059126;28;20062;-68
2023/02/14 07:52:42;;;;;;;25.08;20.38;;;;;;;-2.21;98.37;97417.94;5044056;28;20551;-65
2023/02/14 07:55:08;;;;;;;33.97;20.85;;;;;;;-2.22;98.37;97422.22;5069406;28;20039;-74
2023/02/14 07:57:33;;;;;;;29.88;22.30;;;;;;;-2.20;98.67;97419.63;5067468;28;20033;-73
2023/02/14 07:59:58;;;;;;;35.67;24.73;;;;;;;-2.18;98.19;97413.59;5064913;28;20112;-72
2023/02/14 08:02:24;;;;;;;28.65;23.13;;;;;;;-2.14;97.81;97418.72;5066175;28;20024;-75
2023/02/14 08:04:49;;;;;;;31.55;22.67;;;;;;;-2.15;98.67;97412.69;5065414;28;20123;-75
2023/02/14 08:07:14;;;;;;;44.22;27.08;;;;;;;-2.14;98.28;97414.38;5068500;28;20071;-75
2023/02/14 08:09:40;;;;;;;40.10;25.75;;;;;;;-2.11;97.98;97409.19;5068251;28;20044;-68
2023/02/14 08:14:49;;;;;;;40.05;29.13;;;;;;;-1.99;98.76;97412.47;5069478;28;20036;-65
2023/02/14 08:17:14;;;;;;;44.67;29.80;;;;;;;-1.96;98.51;97417.59;5071572;28;20040;-65
2023/02/14 08:19:40;;;;;;;38.17;26.27;;;;;;;-1.92;98.46;97414.06;5056133;28;20059;-64
2023/02/14 08:22:06;;;;;;;37.63;23.60;;;;;;;-1.90;98.24;97413.19;5074543;28;20044;-64
2023/02/14 08:24:32;;;;;;;30.95;19.88;;;;;;;-1.87;98.09;97409.72;5063397;28;20494;-64
2023/02/14 08:26:57;;;;;;;38.38;23.05;;;;;;;-1.79;98.54;97409.56;5067634;28;20028;-65
2023/02/14 08:29:22;;;;;;;38.70;25.98;;;;;;;-1.76;98.25;97409.56;5068839;28;20423;-67
2023/02/14 08:31:48;;;;;;;36.05;23.58;;;;;;;-1.73;97.86;97402.59;5068080;28;20032;-62
2023/02/14 08:34:14;;;;;;;35.35;26.00;;;;;;;-1.71;97.83;97410.34;5067915;28;20032;-69
2023/02/14 08:36:40;;;;;;;45.15;29.65;;;;;;;-1.70;97.76;97406.88;5068728;28;20120;-70
2023/02/14 08:39:06;;;;;;;44.40;29.27;;;;;;;-1.63;98.19;97394.72;5069838;28;20120;-70
2023/02/14 08:41:32;;;;;;;45.28;29.33;;;;;;;-1.22;97.57;97402.63;5068665;28;20037;-70
2023/02/14 08:43:58;;;;;;;50.50;34.45;;;;;;;-0.65;97.36;97403.31;5067401;28;20036;-70
2023/02/14 08:46:23;;;;;;;47.97;32.28;;;;;;;-0.09;95.35;97400.41;5064448;28;20037;-70
2023/02/14 08:48:49;;;;;;;50.53;32.13;;;;;;;0.48;92.33;97403.38;5068358;28;20094;-77
2023/02/14 08:51:15;;;;;;;56.47;36.70;;;;;;;0.96;91.14;97398.72;5068602;28;20040;-69
2023/02/14 08:53:42;;;;;;;63.22;45.78;;;;;;;1.40;88.67;97401.84;5065920;28;20043;-69
2023/02/14 08:56:09;;;;;;;70.25;49.70;;;;;;;1.82;88.04;97402.41;5057948;28;20886;-70
2023/02/14 08:58:35;;;;;;;64.85;46.15;;;;;;;2.27;86.76;97396.69;5065253;28;20120;-70
2023/02/14 09:01:06;;;;;;;58.38;42.30;;;;;;;2.62;85.02;97400.81;5064627;28;20517;-69
2023/02/14 09:03:32;;;;;;;55.25;37.22;;;;;;;2.96;85.20;97397.06;5059947;28;20036;-70
2023/02/14 09:06:04;;;;;;;43.25;32.20;;;;;;;3.27;83.12;97389.03;5064087;28;20029;-70
2023/02/14 09:08:30;;;;;;;37.78;27.70;;;;;;;3.54;82.05;97391.56;5060126;28;20040;-69
2023/02/14 09:10:56;;;;;;;32.15;24.80;;;;;;;3.83;81.67;97394.81;5064436;28;20505;-68
2023/02/14 09:13:21;;;;;;;32.72;21.92;;;;;;;4.18;80.65;97389.16;5064054;28;20020;-68
2023/02/14 09:15:46;;;;;;;30.40;22.45;;;;;;;4.51;79.54;97386.06;5068576;28;20040;-68
2023/02/14 09:18:12;;;;;;;27.42;20.50;;;;;;;4.77;76.93;97386.78;5067834;28;20068;-67
2023/02/14 09:20:37;;;;;;;37.67;26.10;;;;;;;5.10;75.78;97388.03;5068878;28;20614;-68
2023/02/14 09:23:03;;;;;;;28.73;20.35;;;;;;;5.20;74.77;97396.31;5067464;28;20082;-67
2023/02/14 09:25:28;;;;;;;11.68;8.55;;;;;;;5.11;74.19;97395.78;5059453;28;20064;-67
2023/02/14 09:27:53;;;;;;;10.52;6.95;;;;;;;5.16;74.99;97393.81;5068149;28;20031;-68
2023/02/14 09:30:19;;;;;;;10.73;9.20;;;;;;;5.26;74.66;97393.44;5066378;28;20119;-64
2023/02/14 09:32:44;;;;;;;15.40;11.38;;;;;;;5.31;73.28;97396.69;5065076;28;20179;-65
2023/02/14 09:37:53;;;;;;;10.48;8.20;;;;;;;5.73;71.04;97392.19;5052387;28;20039;-65
2023/02/14 09:40:19;;;;;;;11.35;7.60;;;;;;;6.01;69.68;97390.97;5052468;28;20029;-65
2023/02/14 09:42:58;;;;;;;10.48;6.82;;;;;;;6.21;67.11;97394.44;5058345;28;20028;-65
2023/02/14 09:45:25;;;;;;;6.60;5.93;;;;;;;6.47;66.79;97401.00;5071425;28;20581;-65
2023/02/14 09:48:09;;;;;;;6.55;5.15;;;;;;;6.65;64.53;97395.81;5072027;28;20042;-73
2023/02/14 09:50:51;;;;;;;6.55;5.28;;;;;;;6.89;61.10;97391.13;5071726;28;20054;-74
2023/02/14 09:53:28;;;;;;;4.20;3.80;;;;;;;7.23;60.59;97394.63;5071271;28;20036;-74
2023/02/14 09:56:06;;;;;;;5.07;3.65;;;;;;;7.58;59.09;97388.47;5071592;28;20628;-73
2023/02/14 09:58:48;;;;;;;3.53;3.22;;;;;;;7.87;56.73;97386.06;5071134;28;20040;-73
2023/02/14 10:01:35;;;;;;;6.93;4.00;;;;;;;8.21;55.57;97386.81;5060231;28;20033;-73
2023/02/14 10:04:14;;;;;;;6.70;3.42;;;;;;;8.38;54.98;97385.88;5062509;28;20025;-73
2023/02/14 10:07:13;;;;;;;10.73;4.15;;;;;;;8.62;53.38;97381.97;5058012;28;20558;-77
2023/02/14 10:10:17;;;;;;;5.70;4.43;;;;;;;8.87;53.90;97379.63;5062680;28;20044;-68
2023/02/14 10:13:04;;;;;;;4.45;4.05;;;;;;;8.88;51.44;97380.47;5064993;28;20117;-69
2023/02/14 10:15:35;;;;;;;9.40;4.25;;;;;;;8.90;51.71;97378.59;5069229;28;20056;-69
2023/02/14 10:18:13;;;;;;;5.47;4.35;;;;;;;9.15;52.81;97382.41;5065021;28;20039;-68
2023/02/14 10:20:52;;;;;;;4.35;3.97;;;;;;;9.23;49.89;97371.44;5060905;28;20044;-69
2023/02/14 10:23:26;;;;;;;5.32;4.20;;;;;;;9.32;50.52;97370.88;5058411;28;20491;-68
2023/02/14 10:26:00;;;;;;;5.73;4.17;;;;;;;9.42;50.36;97364.13;5058441;28;20043;-76
2023/02/14 10:28:31;;;;;;;6.10;5.10;;;;;;;9.47;50.33;97371.72;5061418;28;20037;-65
2023/02/14 10:31:17;;;;;;;6.07;4.05;;;;;;;9.50;49.98;97362.81;5062824;28;20041;-66
2023/02/14 10:33:49;;;;;;;5.95;4.55;;;;;;;9.64;49.88;97356.69;5039062;28;20040;-65
2023/02/14 10:36:23;;;;;;;6.03;3.83;;;;;;;9.80;48.53;97359.19;5066656;28;20035;-65
2023/02/14 10:38:51;;;;;;;4.80;4.40;;;;;;;10.13;49.86;97361.47;5064093;28;20028;-65
2023/02/14 10:41:49;;;;;;;4.60;4.20;;;;;;;10.46;47.74;97341.88;5060739;28;20036;-66
2023/02/14 10:44:17;;;;;;;5.25;4.00;;;;;;;10.81;47.22;97345.72;5041762;28;20111;-64
2023/02/14 10:46:49;;;;;;;4.45;4.00;;;;;;;11.00;46.14;97347.13;5064591;28;20151;-65
2023/02/14 10:49:28;;;;;;;4.63;4.22;;;;;;;10.96;44.56;97333.31;5065759;28;20051;-69
2023/02/14 10:52:03;;;;;;;6.25;3.50;;;;;;;10.87;44.50;97334.78;5066062;28;20166;-69
2023/02/14 10:54:37;;;;;;;4.38;3.97;;;;;;;11.01;44.29;97330.38;5065651;28;20086;-69
2023/02/14 10:57:16;;;;;;;6.88;3.58;;;;;;;11.40;44.15;97327.72;5059369;28;20033;-69
2023/02/14 10:59:57;;;;;;;6.38;3.97;;;;;;;11.51;43.39;97326.97;5064721;28;20780;-69
2023/02/14 11:02:39;;;;;;;6.93;3.97;;;;;;;11.62;43.42;97321.81;5056988;28;20082;-69
2023/02/14 11:05:05;;;;;;;5.25;3.47;;;;;;;11.72;43.65;97322.81;5050718;28;20039;-71
2023/02/14 11:07:31;;;;;;;7.00;3.30;;;;;;;11.97;42.17;97317.59;5058382;28;20583;-66
2023/02/14 11:09:56;;;;;;;4.90;3.50;;;;;;;12.03;41.46;97317.19;5061979;28;20059;-66
2023/02/14 11:12:36;;;;;;;3.75;3.40;;;;;;;12.32;40.38;97307.13;5058450;28;20426;-65
2023/02/14 11:15:12;;;;;;;3.75;3.30;;;;;;;12.49;39.64;97305.03;5052815;28;20036;-65
2023/02/14 11:17:37;;;;;;;3.10;2.90;;;;;;;12.48;39.41;97299.84;5049762;28;20045;-66
2023/02/14 11:20:25;;;;;;;4.03;3.13;;;;;;;12.63;38.10;97300.50;5057647;28;20028;-66
2023/02/14 11:22:51;;;;;;;3.15;2.85;;;;;;;12.88;38.55;97302.97;5058157;28;20498;-65
2023/02/14 11:25:35;;;;;;;3.60;3.30;;;;;;;13.17;37.63;97293.75;5053003;28;20044;-76
2023/02/14 11:28:14;;;;;;;3.78;2.83;;;;;;;13.04;36.05;97291.22;5051925;28;20568;-63
2023/02/14 11:30:44;;;;;;;10.02;3.63;;;;;;;13.36;36.37;97282.59;5060367;28;20596;-63
2023/02/14 11:33:21;;;;;;;4.40;3.42;;;;;;;13.87;37.77;97277.78;5057744;28;20028;-63
2023/02/14 11:35:50;;;;;;;5.78;3.28;;;;;;;14.23;36.29;97274.91;5053344;28;20051;-63
2023/02/14 11:38:34;;;;;;;3.28;2.97;;;;;;;14.36;33.16;97272.06;5053006;28;20091;-63
2023/02/14 11:41:01;;;;;;;3.15;2.92;;;;;;;14.28;33.58;97275.34;5058545;28;20127;-63
2023/02/14 11:43:50;;;;;;;3.72;3.17;;;;;;;14.34;33.99;97269.53;5069588;28;20494;-64
2023/02/14 11:46:19;;;;;;;2.90;2.70;;;;;;;13.95;33.63;97263.91;5067850;28;20066;-65
2023/02/14 11:48:57;;;;;;;3.63;2.63;;;;;;;13.84;33.30;97262.97;5069553;28;20063;-65
2023/02/14 11:51:44;;;;;;;2.63;2.42;;;;;;;14.26;32.07;97250.81;5070601;28;20066;-65
2023/02/14 11:54:30;;;;;;;7.38;2.38;;;;;;;13.83;31.89;97256.00;5059145;28;20520;-65
2023/02/14 11:57:03;;;;;;;3.03;2.70;;;;;;;13.46;33.27;97243.91;5069812;28;20020;-65
2023/02/14 11:59:34;;;;;;;3.15;2.90;;;;;;;13.83;32.18;97245.41;5059742;28;20029;-65